createdAt,value
2018-03-06T09:30:10.236Z,60.90
2018-03-06T09:32:42.625Z,60.90
2018-03-06T09:35:37.722Z,60.90
2018-03-06T09:38:08.083Z,60.30
2018-03-06T09:40:38.640Z,59.60
2018-03-06T09:46:41.562Z,58.40
2018-03-06T09:49:36.575Z,56.90
2018-03-06T10:14:19.076Z,54.70
2018-03-06T10:16:49.464Z,56.50
2018-03-06T10:19:21.944Z,55.90
2018-03-06T10:22:03.967Z,54.90
2018-03-06T10:24:34.292Z,57.60
2018-03-06T10:27:07.065Z,52.70
2018-03-06T10:29:49.437Z,52.20
2018-03-06T10:32:20.808Z,51.90
2018-03-06T10:35:11.303Z,51.90
2018-03-06T10:44:01.117Z,51.40
2018-03-06T10:46:31.226Z,52.10
2018-03-06T10:52:08.365Z,51.30
2018-03-06T10:54:54.240Z,51.30
2018-03-06T11:06:53.447Z,50.10
2018-03-06T11:09:29.040Z,51.00
2018-03-06T11:15:14.045Z,48.10
2018-03-06T11:18:13.211Z,46.70
2018-03-06T11:26:49.907Z,48.20
2018-03-06T11:29:30.148Z,46.90
2018-03-06T11:50:47.154Z,45.00
2018-03-06T11:53:45.612Z,45.20
2018-03-06T12:02:25.512Z,44.20
2018-03-06T12:04:56.885Z,43.50
2018-03-06T12:07:26.839Z,44.20
2018-03-06T12:09:57.228Z,41.90
2018-03-06T12:12:48.234Z,42.00
2018-03-06T12:15:19.698Z,42.40
2018-03-06T12:17:50.981Z,42.30
2018-03-06T12:20:21.055Z,42.30
2018-03-06T12:22:51.270Z,41.80
2018-03-06T12:25:40.730Z,40.80
2018-03-06T12:28:25.869Z,42.50
2018-03-06T12:31:14.229Z,42.10
2018-03-06T12:33:44.773Z,40.90
2018-03-06T12:36:28.553Z,38.50
2018-03-06T12:38:58.858Z,40.90
2018-03-06T12:44:32.020Z,41.40
2018-03-06T12:47:02.518Z,44.30
2018-03-06T12:49:32.572Z,43.60
2018-03-06T12:52:13.086Z,43.50
2018-03-06T12:54:43.916Z,41.60
2018-03-06T12:57:19.905Z,41.60
2018-03-06T12:59:49.941Z,42.40
2018-03-06T13:08:35.664Z,44.00
2018-03-06T13:11:12.570Z,43.00
2018-03-06T13:13:44.640Z,45.60
2018-03-06T13:16:15.642Z,44.90
2018-03-06T13:18:45.987Z,41.10
2018-03-06T13:21:19.938Z,42.40
2018-03-06T13:23:50.195Z,41.70
2018-03-06T13:26:28.198Z,41.00
2018-03-06T13:32:18.857Z,40.40
2018-03-06T13:38:02.093Z,47.50
2018-03-06T13:40:33.438Z,40.50
2018-03-06T13:43:04.022Z,39.40
2018-03-06T13:48:42.200Z,44.40
2018-03-06T13:51:28.657Z,45.30
2018-03-06T13:57:16.516Z,48.40
2018-03-06T13:59:47.008Z,51.60
2018-03-06T14:02:42.078Z,50.10
2018-03-06T14:08:13.440Z,52.60
2018-03-06T14:10:44.260Z,52.80
2018-03-06T14:13:14.345Z,52.80
2018-03-06T14:15:45.281Z,55.50
2018-03-06T14:18:15.849Z,55.50
2018-03-06T14:20:46.025Z,55.80
2018-03-06T14:23:16.135Z,55.90
2018-03-06T14:25:46.364Z,56.30
2018-03-06T14:28:16.429Z,56.50
2018-03-06T14:30:46.934Z,53.80
2018-03-06T14:33:17.026Z,53.70
2018-03-06T14:35:47.078Z,53.00
2018-03-06T14:38:17.916Z,52.50
2018-03-06T14:40:48.031Z,52.50
2018-03-06T14:43:18.069Z,52.40
2018-03-06T14:45:48.205Z,52.00
2018-03-06T14:48:18.291Z,50.80
2018-03-06T14:50:48.705Z,51.70
2018-03-06T14:53:18.769Z,48.40
2018-03-06T14:55:48.818Z,51.60
2018-03-06T14:58:19.060Z,49.40
2018-03-06T15:00:49.106Z,49.00
2018-03-06T15:03:19.148Z,49.50
2018-03-06T15:05:49.191Z,46.50
2018-03-06T15:08:19.258Z,47.60
2018-03-06T15:10:49.358Z,47.10
2018-03-06T15:13:19.457Z,47.90
2018-03-06T15:15:50.536Z,48.40
2018-03-06T15:18:20.667Z,48.40
2018-03-06T15:20:50.803Z,48.90
2018-03-06T15:23:20.879Z,49.10
2018-03-06T15:25:51.218Z,49.20
2018-03-06T15:28:22.150Z,50.90
2018-03-06T15:30:52.259Z,50.90
2018-03-06T15:33:22.542Z,50.80
2018-03-06T15:35:53.531Z,51.40
2018-03-06T15:38:23.871Z,51.90
2018-03-06T15:40:53.941Z,53.50
2018-03-06T15:43:24.428Z,54.00
2018-03-06T15:45:54.464Z,54.90
2018-03-06T15:48:25.749Z,55.00
2018-03-06T15:50:55.596Z,56.50
2018-03-06T15:53:25.978Z,58.00
2018-03-06T15:55:56.037Z,57.20
2018-03-06T15:58:26.054Z,57.00
2018-03-06T16:00:56.198Z,57.20
2018-03-06T16:03:27.587Z,58.70
2018-03-06T16:05:58.855Z,60.30
2018-03-06T16:08:28.966Z,60.40
2018-03-06T16:10:59.059Z,61.50
2018-03-06T16:13:30.833Z,63.90
2018-03-06T16:16:00.919Z,63.90
2018-03-06T16:18:35.832Z,64.60
2018-03-06T16:21:28.255Z,66.50
2018-03-06T16:24:00.344Z,66.50
2018-03-06T16:26:30.416Z,67.60
2018-03-06T16:29:00.440Z,67.60
2018-03-06T16:31:31.325Z,68.90
2018-03-06T16:34:03.030Z,69.80
2018-03-06T16:36:39.059Z,71.20
2018-03-06T16:39:09.718Z,72.60
2018-03-06T16:41:41.435Z,73.70
2018-03-06T16:44:11.974Z,75.70
2018-03-06T16:46:43.088Z,76.60
2018-03-06T16:49:14.155Z,77.80
2018-03-06T16:51:45.777Z,79.60
2018-03-06T16:54:39.830Z,79.50
2018-03-06T16:57:09.947Z,80.00
2018-03-06T16:59:44.837Z,81.00
2018-03-06T17:02:15.061Z,81.40
2018-03-06T17:04:45.259Z,82.40
2018-03-06T17:07:16.284Z,83.80
2018-03-06T17:09:54.446Z,83.80
2018-03-06T17:12:24.868Z,84.70
2018-03-06T17:17:53.698Z,85.30
2018-03-06T17:20:42.171Z,85.70
2018-03-06T17:23:13.289Z,86.40
2018-03-06T17:26:13.335Z,86.30
2018-03-06T17:28:43.792Z,86.30
2018-03-06T17:34:16.304Z,87.90
2018-03-06T17:36:46.497Z,87.80
2018-03-06T17:39:17.317Z,88.20
2018-03-06T17:41:47.364Z,88.10
2018-03-06T17:44:17.152Z,88.30
2018-03-06T17:46:47.952Z,88.00
2018-03-06T17:49:18.331Z,88.00
2018-03-06T17:51:48.360Z,88.50
2018-03-06T18:03:26.846Z,89.50
2018-03-06T18:09:15.725Z,90.00
2018-03-06T18:12:04.123Z,91.00
2018-03-06T18:14:42.182Z,90.90
2018-03-06T18:17:12.482Z,91.00
2018-03-06T18:19:43.946Z,90.80
2018-03-06T18:22:40.369Z,91.10
2018-03-06T18:32:03.490Z,90.40
2018-03-06T18:34:34.648Z,90.30
2018-03-06T18:37:12.432Z,90.30
2018-03-06T18:39:43.832Z,90.40
2018-03-06T18:42:17.753Z,90.30
2018-03-06T18:47:24.666Z,90.50
2018-03-06T18:50:05.378Z,90.40
2018-03-06T18:55:43.351Z,91.00
2018-03-06T18:58:27.569Z,90.90
2018-03-06T19:01:14.290Z,91.20
2018-03-06T19:04:01.672Z,91.30
2018-03-06T19:09:38.193Z,91.30
2018-03-06T19:15:13.249Z,92.20
2018-03-06T19:20:49.403Z,92.20
2018-03-06T19:26:25.629Z,92.70
2018-03-06T19:28:56.550Z,93.10
2018-03-06T19:31:26.891Z,93.90
2018-03-06T19:33:56.995Z,93.80
2018-03-06T19:36:44.269Z,94.40
2018-03-06T19:39:14.373Z,94.40
2018-03-06T19:41:54.451Z,94.70
2018-03-06T19:44:24.596Z,95.00
2018-03-06T19:47:12.456Z,95.30
2018-03-06T19:50:11.597Z,95.20
2018-03-06T19:52:42.753Z,95.60
2018-03-06T19:55:28.566Z,95.50
2018-03-06T19:58:13.810Z,95.30
2018-03-06T20:03:51.553Z,95.00
2018-03-06T20:06:41.454Z,94.80
2018-03-06T20:09:11.505Z,94.80
2018-03-06T20:12:11.010Z,95.00
2018-03-06T20:17:53.420Z,95.00
2018-03-06T20:20:29.607Z,95.10
2018-03-06T20:22:59.806Z,95.40
2018-03-06T20:25:35.386Z,95.40
2018-03-06T20:28:05.436Z,95.40
2018-03-06T20:30:48.306Z,95.50
2018-03-06T20:33:18.505Z,95.20
2018-03-06T20:35:49.486Z,95.60
2018-03-06T20:38:25.505Z,95.90
2018-03-06T20:40:55.575Z,95.70
2018-03-06T20:43:42.458Z,95.80
2018-03-06T20:46:18.483Z,95.70
2018-03-06T20:48:49.433Z,95.40
2018-03-06T20:51:20.520Z,95.30
2018-03-06T20:53:56.852Z,95.30
2018-03-06T20:56:29.384Z,95.50
2018-03-06T20:58:59.780Z,95.60
2018-03-06T21:01:34.346Z,95.40
2018-03-06T21:04:05.419Z,95.60
2018-03-06T21:06:35.597Z,95.70
2018-03-06T21:09:04.672Z,95.70
2018-03-06T21:11:35.971Z,95.90
2018-03-06T21:14:06.059Z,96.20
2018-03-06T21:16:36.531Z,96.50
2018-03-06T21:19:07.867Z,96.40
2018-03-06T21:21:38.574Z,96.50
2018-03-06T21:24:08.623Z,96.40
2018-03-06T21:26:41.885Z,96.40
2018-03-06T21:29:12.871Z,96.40
2018-03-06T21:31:52.237Z,96.10
2018-03-06T21:34:23.342Z,96.30
2018-03-06T21:36:53.392Z,96.10
2018-03-06T21:39:24.427Z,95.60
2018-03-06T21:41:54.776Z,95.60
2018-03-06T21:44:24.837Z,95.50
2018-03-06T21:46:55.707Z,95.50
2018-03-06T21:49:28.523Z,95.30
2018-03-06T21:51:59.884Z,95.50
2018-03-06T21:54:30.094Z,95.70
2018-03-06T21:57:11.380Z,96.10
2018-03-06T21:59:41.642Z,96.50
2018-03-06T22:02:12.916Z,96.80
2018-03-06T22:04:42.944Z,96.60
2018-03-06T22:07:12.985Z,96.10
2018-03-06T22:10:09.400Z,95.70
2018-03-06T22:12:43.890Z,95.60
2018-03-06T22:15:18.277Z,95.50
2018-03-06T22:17:48.322Z,95.30
2018-03-06T22:20:18.069Z,95.50
2018-03-06T22:22:48.097Z,95.70
2018-03-06T22:25:24.230Z,95.80
2018-03-06T22:27:55.346Z,96.30
2018-03-06T22:30:25.399Z,96.30
2018-03-06T22:32:56.558Z,96.70
2018-03-06T22:35:26.945Z,96.80
2018-03-06T22:37:57.161Z,96.90
2018-03-06T22:40:28.183Z,96.40
2018-03-06T22:42:58.230Z,96.50
2018-03-06T22:45:28.294Z,96.10
2018-03-06T22:47:58.321Z,96.10
2018-03-06T22:50:28.393Z,97.10
2018-03-06T22:53:11.993Z,97.40
2018-03-06T23:07:43.086Z,99.00
2018-03-06T23:10:13.462Z,99.10
2018-03-06T23:16:16.481Z,98.90
2018-03-06T23:21:52.624Z,99.90
2018-03-06T23:24:41.702Z,99.90
2018-03-06T23:27:12.770Z,99.90
2018-03-06T23:32:49.206Z,99.90
2018-03-06T23:35:19.245Z,99.80
2018-03-06T23:40:36.105Z,99.90
2018-03-06T23:43:10.795Z,99.90
2018-03-06T23:45:46.807Z,99.90
2018-03-06T23:51:02.801Z,99.90
2018-03-06T23:53:33.466Z,99.90
2018-03-06T23:56:04.049Z,99.90
2018-03-06T23:58:34.142Z,99.90
